Time;durP1;ratioP1;P1;durP2;ratioP2;P2;SDS_P1;SDS_P2;PMS_P1;PMS_P2;Temp;Humidity;BMP_temperature;BMP_pressure;BME280_temperature;BME280_humidity;BME280_pressure;Samples;Min_cycle;Max_cycle;Signal;HPM_P1;HPM_P2
2022/10/10 00:01:11;;;;;;;3.70;1.80;;;;;;;6.43;86.35;101030.09;5016898;28;20213;-84
2022/10/10 00:03:37;;;;;;;2.80;1.93;;;;;;;6.46;86.49;101038.75;5018521;28;20207;-85
2022/10/10 00:06:04;;;;;;;5.27;2.37;;;;;;;6.48;86.24;101041.34;5022284;28;20226;-85
2022/10/10 00:08:30;;;;;;;3.27;2.00;;;;;;;6.50;86.77;101036.84;5012998;28;20227;-85
2022/10/10 00:10:58;;;;;;;3.30;2.20;;;;;;;6.51;87.03;101033.28;5010427;28;20214;-85
2022/10/10 00:13:24;;;;;;;2.53;1.90;;;;;;;6.54;86.64;101033.16;5025875;28;20209;-84
2022/10/10 00:15:51;;;;;;;3.50;2.10;;;;;;;6.53;86.68;101028.78;5019841;28;20210;-84
2022/10/10 00:18:17;;;;;;;2.90;2.13;;;;;;;6.50;86.87;101026.25;5015715;28;20225;-84
2022/10/10 00:20:44;;;;;;;4.53;2.13;;;;;;;6.47;86.53;101021.09;5024859;28;20567;-85
2022/10/10 00:23:10;;;;;;;6.13;2.63;;;;;;;6.46;87.09;101022.88;5009705;28;20199;-84
2022/10/10 00:25:37;;;;;;;3.40;2.20;;;;;;;6.44;87.02;101018.59;5017574;28;20229;-83
2022/10/10 00:28:05;;;;;;;2.33;2.00;;;;;;;6.41;86.57;101013.44;5011928;28;20223;-83
2022/10/10 00:30:32;;;;;;;4.83;2.50;;;;;;;6.41;86.93;101021.38;5015912;28;20215;-81
2022/10/10 00:32:58;;;;;;;5.50;1.97;;;;;;;6.39;87.13;101016.13;5015017;28;20644;-82
2022/10/10 00:35:25;;;;;;;2.10;1.90;;;;;;;6.39;87.38;101008.19;5013527;28;20257;-82
2022/10/10 00:37:52;;;;;;;4.17;2.10;;;;;;;6.38;87.07;101005.59;5023754;28;20593;-81
2022/10/10 00:40:19;;;;;;;6.07;2.20;;;;;;;6.35;86.58;101005.72;5018711;28;20207;-82
2022/10/10 00:42:45;;;;;;;4.27;1.80;;;;;;;6.25;86.33;101003.47;5015778;28;20207;-82
2022/10/10 00:45:29;;;;;;;4.13;2.40;;;;;;;6.17;85.96;100996.75;5020950;28;20225;-82
2022/10/10 00:48:00;;;;;;;4.63;2.13;;;;;;;6.11;86.35;100997.84;5012663;28;20277;-82
2022/10/10 00:50:28;;;;;;;2.33;1.80;;;;;;;6.07;86.34;100998.91;5009594;28;20207;-81
2022/10/10 00:52:55;;;;;;;6.07;2.40;;;;;;;6.06;86.40;100994.53;5015076;28;20210;-82
2022/10/10 00:55:22;;;;;;;4.30;2.20;;;;;;;6.05;86.67;100991.94;5021738;28;20210;-80
2022/10/10 00:57:50;;;;;;;4.50;2.20;;;;;;;6.03;86.60;100991.13;5020449;28;20681;-82
2022/10/10 01:00:17;;;;;;;6.03;2.30;;;;;;;6.01;86.67;100985.91;5021258;28;20210;-82
2022/10/10 01:02:44;;;;;;;3.33;2.30;;;;;;;5.99;87.01;100987.75;5018556;28;20203;-82
2022/10/10 01:05:11;;;;;;;5.13;2.20;;;;;;;5.98;86.77;100991.31;5024359;28;20578;-82
2022/10/10 01:07:38;;;;;;;4.47;2.00;;;;;;;5.96;87.09;100990.50;5022375;28;20234;-82
2022/10/10 01:10:08;;;;;;;2.97;1.97;;;;;;;5.95;87.09;100991.44;5017280;28;20219;-81
2022/10/10 01:12:48;;;;;;;3.03;2.03;;;;;;;5.92;87.13;100986.25;5011769;28;20195;-81
2022/10/10 01:15:22;;;;;;;4.27;2.43;;;;;;;5.91;87.05;100985.38;5022454;28;20224;-83
2022/10/10 01:17:58;;;;;;;3.53;2.33;;;;;;;5.91;87.09;100984.56;5030199;28;20218;-82
2022/10/10 01:20:43;;;;;;;5.73;2.70;;;;;;;5.89;86.88;100987.25;5020425;28;20621;-82
2022/10/10 01:23:34;;;;;;;5.47;2.70;;;;;;;5.87;87.02;100982.91;5015766;28;20242;-82
2022/10/10 01:26:18;;;;;;;4.97;2.43;;;;;;;5.83;86.73;100970.72;5023588;28;20222;-82
2022/10/10 01:28:50;;;;;;;4.27;2.60;;;;;;;5.81;86.88;100972.56;5015981;28;20235;-83
2022/10/10 01:31:21;;;;;;;12.30;3.93;;;;;;;5.79;86.91;100969.13;5021177;28;20848;-83
2022/10/10 01:34:02;;;;;;;7.87;4.20;;;;;;;5.77;87.11;100966.53;5018630;28;20282;-82
2022/10/10 01:36:38;;;;;;;11.83;4.83;;;;;;;5.76;87.38;100956.03;5017903;28;20194;-82
2022/10/10 01:39:13;;;;;;;9.20;4.83;;;;;;;5.75;87.68;100952.50;5017035;28;20237;-82
2022/10/10 01:41:47;;;;;;;9.10;4.50;;;;;;;5.75;87.75;100949.88;5024047;28;20202;-82
2022/10/10 01:44:15;;;;;;;8.80;3.67;;;;;;;5.77;87.99;100939.25;5027692;28;20233;-83
2022/10/10 01:46:42;;;;;;;9.63;3.70;;;;;;;5.78;88.11;100946.25;5021654;28;20233;-82
2022/10/10 01:49:09;;;;;;;10.30;4.60;;;;;;;5.79;88.24;100948.84;5027361;28;20214;-83
2022/10/10 01:51:54;;;;;;;10.43;5.00;;;;;;;5.79;88.59;100946.19;5023063;28;20567;-82
2022/10/10 01:54:35;;;;;;;7.63;3.67;;;;;;;5.77;88.65;100940.09;5016898;28;20210;-82
2022/10/10 01:57:15;;;;;;;5.73;3.60;;;;;;;5.76;88.78;100942.81;5011063;28;20574;-82
2022/10/10 01:59:51;;;;;;;6.07;3.33;;;;;;;5.75;88.89;100951.66;5014580;28;20595;-81
2022/10/10 02:02:29;;;;;;;8.20;3.10;;;;;;;5.74;88.82;100931.44;5023529;28;20205;-81
2022/10/10 02:05:00;;;;;;;5.20;3.20;;;;;;;5.71;88.70;100935.06;5019650;28;20215;-81
2022/10/10 02:07:32;;;;;;;5.57;2.97;;;;;;;5.71;88.65;100928.94;5014985;28;20226;-80
2022/10/10 02:10:02;;;;;;;5.60;2.93;;;;;;;5.68;89.10;100929.91;5020855;28;20199;-80
2022/10/10 02:12:31;;;;;;;4.07;2.57;;;;;;;5.68;88.84;100923.75;5008851;28;20200;-80
2022/10/10 02:15:06;;;;;;;2.87;2.33;;;;;;;5.68;89.04;100919.34;5014873;28;20212;-82
2022/10/10 02:17:36;;;;;;;5.20;2.33;;;;;;;5.71;88.87;100918.34;5017740;28;20236;-81
2022/10/10 02:20:06;;;;;;;4.50;2.30;;;;;;;5.74;89.65;100926.13;5015305;28;20199;-80
2022/10/10 02:22:32;;;;;;;5.47;2.20;;;;;;;5.74;89.53;100923.50;5014449;28;20675;-83
2022/10/10 02:24:59;;;;;;;6.30;2.50;;;;;;;5.73;89.51;100917.34;5015798;28;20206;-81
2022/10/10 02:27:32;;;;;;;5.27;2.23;;;;;;;5.73;89.31;100913.88;5022645;28;20245;-81
2022/10/10 02:30:04;;;;;;;11.23;5.43;;;;;;;5.71;89.27;100903.38;5026172;28;20210;-79
2022/10/10 02:32:34;;;;;;;7.57;3.63;;;;;;;5.69;89.70;100904.34;5016915;28;20206;-80
2022/10/10 02:35:08;;;;;;;10.10;3.30;;;;;;;5.68;89.77;100907.91;5015808;28;20206;-80
2022/10/10 02:37:36;;;;;;;8.37;2.97;;;;;;;5.68;89.69;100899.97;5025881;28;20226;-78
2022/10/10 02:40:06;;;;;;;11.60;2.70;;;;;;;5.69;89.83;100907.00;5013936;28;20709;-80
2022/10/10 02:42:35;;;;;;;5.63;2.23;;;;;;;5.71;89.85;100902.50;5018293;28;20206;-79
2022/10/10 02:45:04;;;;;;;5.73;2.47;;;;;;;5.72;90.17;100896.31;5015141;28;20242;-82
2022/10/10 02:47:31;;;;;;;3.77;2.20;;;;;;;5.74;90.20;100897.94;5017814;28;20226;-81
2022/10/10 02:49:58;;;;;;;2.53;2.00;;;;;;;5.75;90.50;100883.81;5015715;28;20673;-81
2022/10/10 02:52:24;;;;;;;5.43;3.67;;;;;;;5.76;90.15;100884.66;5011714;28;20206;-83
2022/10/10 02:54:51;;;;;;;4.87;2.60;;;;;;;5.77;90.34;100892.53;5014229;28;20203;-80
2022/10/10 02:57:17;;;;;;;6.73;2.23;;;;;;;5.78;90.46;100888.09;5018333;28;20559;-83
2022/10/10 02:59:44;;;;;;;3.73;2.00;;;;;;;5.77;90.30;100876.69;5027939;28;20214;-82
2022/10/10 03:02:12;;;;;;;2.73;2.10;;;;;;;5.80;90.33;100888.91;5015440;28;20215;-81
2022/10/10 03:04:38;;;;;;;5.30;2.40;;;;;;;5.79;90.74;100889.84;5018427;28;20238;-82
2022/10/10 03:07:05;;;;;;;3.87;1.90;;;;;;;5.79;90.67;100890.69;5015747;28;20310;-82
2022/10/10 03:09:32;;;;;;;6.63;2.63;;;;;;;5.79;90.90;100890.69;5019754;28;20203;-82
2022/10/10 03:11:58;;;;;;;4.50;2.00;;;;;;;5.79;90.53;100892.47;5014125;28;20618;-82
2022/10/10 03:14:25;;;;;;;3.73;2.20;;;;;;;5.79;90.58;100900.41;5006775;28;20198;-81
2022/10/10 03:16:51;;;;;;;8.20;2.40;;;;;;;5.78;90.48;100894.25;5024194;28;20672;-82
2022/10/10 03:19:19;;;;;;;6.90;2.43;;;;;;;5.77;90.82;100897.81;5023343;28;20711;-82
2022/10/10 03:21:46;;;;;;;4.73;2.83;;;;;;;5.74;90.47;100894.44;5016597;28;20218;-81
2022/10/10 03:24:12;;;;;;;3.90;2.40;;;;;;;5.69;90.28;100886.72;5013854;28;20218;-80
2022/10/10 03:26:39;;;;;;;2.83;1.90;;;;;;;5.65;90.11;100886.88;5012889;28;20233;-81
2022/10/10 03:29:05;;;;;;;4.43;2.40;;;;;;;5.63;90.33;100891.34;5012530;28;20203;-80
2022/10/10 03:31:32;;;;;;;4.50;2.17;;;;;;;5.61;90.31;100888.78;5016714;28;20203;-81
2022/10/10 03:33:59;;;;;;;5.17;2.40;;;;;;;5.56;90.12;100894.22;5021624;28;20226;-80
2022/10/10 03:36:27;;;;;;;4.47;2.70;;;;;;;5.53;90.19;100891.72;4999328;28;20208;-81
2022/10/10 03:38:53;;;;;;;6.30;2.90;;;;;;;5.52;89.80;100891.78;5019243;28;20233;-81
2022/10/10 03:41:20;;;;;;;5.23;3.13;;;;;;;5.50;89.84;100888.34;5011331;28;20211;-82
2022/10/10 03:43:46;;;;;;;5.93;3.17;;;;;;;5.49;89.76;100891.91;5013084;28;20213;-82
2022/10/10 03:46:13;;;;;;;4.70;2.90;;;;;;;5.46;89.56;100890.22;5012928;28;20233;-82
2022/10/10 03:48:39;;;;;;;5.40;2.60;;;;;;;5.46;89.84;100895.53;5013466;28;20234;-81
2022/10/10 03:51:06;;;;;;;3.33;2.37;;;;;;;5.44;89.79;100884.16;5029328;28;20217;-81
2022/10/10 03:53:33;;;;;;;5.63;2.67;;;;;;;5.45;89.87;100879.72;5019624;28;20566;-81
2022/10/10 03:56:00;;;;;;;3.70;2.47;;;;;;;5.44;90.09;100875.38;5027685;28;20206;-80
2022/10/10 03:58:26;;;;;;;5.83;2.80;;;;;;;5.43;90.24;100877.13;5013674;28;20227;-81
2022/10/10 04:00:54;;;;;;;4.93;2.60;;;;;;;5.41;90.00;100871.06;5022108;28;20592;-81
2022/10/10 04:03:21;;;;;;;3.63;2.40;;;;;;;5.41;90.25;100870.19;5011577;28;20209;-81
2022/10/10 04:05:47;;;;;;;6.10;2.90;;;;;;;5.41;90.32;100871.06;5022489;28;20217;-81
2022/10/10 04:08:14;;;;;;;5.23;2.63;;;;;;;5.40;90.33;100871.97;5022417;28;20242;-81
2022/10/10 04:10:42;;;;;;;8.20;3.20;;;;;;;5.41;90.16;100865.78;5012190;28;20213;-82
2022/10/10 04:13:08;;;;;;;4.90;2.77;;;;;;;5.39;90.14;100864.09;5011316;28;20619;-82
2022/10/10 04:15:35;;;;;;;4.70;2.70;;;;;;;5.38;90.37;100860.59;5012565;28;20606;-81
2022/10/10 04:18:01;;;;;;;4.47;2.40;;;;;;;5.36;90.12;100854.53;5009463;28;20222;-82
2022/10/10 04:20:28;;;;;;;3.67;2.73;;;;;;;5.36;90.37;100865.13;5014186;28;20210;-83
2022/10/10 04:22:54;;;;;;;3.03;2.73;;;;;;;5.35;90.19;100863.38;5005580;28;20212;-82
2022/10/10 04:25:20;;;;;;;4.90;2.43;;;;;;;5.33;89.94;100859.94;5011250;28;20215;-81
2022/10/10 04:27:48;;;;;;;4.20;2.33;;;;;;;5.32;89.93;100857.34;5017145;28;20230;-81
2022/10/10 04:30:15;;;;;;;4.90;2.50;;;;;;;5.30;90.04;100854.78;5007186;28;20218;-82
2022/10/10 04:32:41;;;;;;;3.67;2.30;;;;;;;5.27;90.00;100854.03;5011074;28;20209;-82
2022/10/10 04:35:08;;;;;;;4.77;2.60;;;;;;;5.26;89.95;100852.31;5015558;28;20218;-83
2022/10/10 04:37:36;;;;;;;3.67;3.00;;;;;;;5.23;89.73;100845.34;5018656;28;20227;-82
2022/10/10 04:40:02;;;;;;;5.40;3.00;;;;;;;5.20;89.72;100838.41;5017243;28;20214;-82
2022/10/10 04:42:29;;;;;;;6.43;3.30;;;;;;;5.18;89.53;100842.91;5013429;28;20636;-83
2022/10/10 04:44:57;;;;;;;3.57;2.40;;;;;;;5.17;89.91;100837.69;5011574;28;20552;-81
2022/10/10 04:47:23;;;;;;;4.83;2.83;;;;;;;5.14;89.82;100837.78;5017656;28;20478;-82
2022/10/10 04:49:49;;;;;;;4.57;3.40;;;;;;;5.12;89.96;100834.34;5017689;28;20548;-81
2022/10/10 04:52:16;;;;;;;3.80;2.87;;;;;;;5.11;89.67;100832.63;5016567;28;20598;-82
2022/10/10 04:54:44;;;;;;;4.87;2.23;;;;;;;5.12;90.02;100832.56;5015798;28;20336;-81
2022/10/10 04:57:11;;;;;;;4.73;2.00;;;;;;;5.24;90.67;100823.31;5014766;28;20606;-80
2022/10/10 04:59:37;;;;;;;4.30;2.03;;;;;;;5.40;91.79;100824.44;5015381;28;20219;-80
2022/10/10 05:02:05;;;;;;;3.60;2.33;;;;;;;5.59;92.70;100825.44;5015872;28;20206;-81
2022/10/10 05:04:32;;;;;;;4.80;1.90;;;;;;;5.77;93.19;100812.38;4999051;28;20294;-79
2022/10/10 05:06:58;;;;;;;4.93;2.20;;;;;;;5.91;94.01;100808.28;5013726;28;20233;-82
2022/10/10 05:09:25;;;;;;;6.20;2.10;;;;;;;6.06;94.04;100808.59;5010766;28;20207;-79
2022/10/10 05:11:51;;;;;;;4.57;1.97;;;;;;;6.18;93.83;100808.06;5016912;28;20691;-80
2022/10/10 05:14:18;;;;;;;2.63;1.97;;;;;;;6.28;94.03;100802.28;5017612;28;20203;-80
2022/10/10 05:16:44;;;;;;;4.37;1.93;;;;;;;6.36;93.63;100803.75;5015426;28;20213;-80
2022/10/10 05:19:12;;;;;;;4.83;1.73;;;;;;;6.41;93.75;100804.44;5017389;28;20202;-79
2022/10/10 05:21:38;;;;;;;3.73;1.67;;;;;;;6.47;93.39;100793.56;5016918;28;20218;-79
2022/10/10 05:24:05;;;;;;;4.33;1.80;;;;;;;6.54;93.01;100795.00;5010677;28;21330;-78
2022/10/10 05:26:32;;;;;;;3.60;2.00;;;;;;;6.59;92.85;100795.69;5009453;28;20222;-81
2022/10/10 05:29:00;;;;;;;3.87;1.90;;;;;;;6.65;92.78;100791.88;5013310;28;20466;-82
2022/10/10 05:31:27;;;;;;;3.30;1.63;;;;;;;6.72;92.81;100798.63;5014665;28;20215;-82
2022/10/10 05:33:54;;;;;;;3.83;2.17;;;;;;;6.78;92.59;100787.78;5005918;28;20689;-81
2022/10/10 05:36:21;;;;;;;2.37;1.70;;;;;;;6.84;92.50;100790.97;5012711;28;20588;-82
2022/10/10 05:38:48;;;;;;;2.77;1.87;;;;;;;6.91;92.26;100786.28;5009118;28;20576;-81
2022/10/10 05:41:15;;;;;;;3.23;2.30;;;;;;;6.98;92.03;100779.78;5015262;28;20238;-82
2022/10/10 05:43:41;;;;;;;4.20;1.93;;;;;;;7.04;91.02;100783.91;5009747;28;20211;-81
2022/10/10 05:46:08;;;;;;;3.40;1.73;;;;;;;7.10;90.79;100779.19;5017774;28;20620;-82
2022/10/10 05:48:34;;;;;;;3.53;2.10;;;;;;;7.15;90.58;100781.63;5020615;28;20233;-81
2022/10/10 05:51:01;;;;;;;4.23;1.70;;;;;;;7.22;90.60;100772.44;5014829;28;20213;-81
2022/10/10 05:53:29;;;;;;;6.10;2.27;;;;;;;7.25;89.93;100778.47;5010504;28;20202;-81
2022/10/10 05:55:56;;;;;;;3.17;1.80;;;;;;;7.29;89.27;100772.09;5010043;28;20207;-81
2022/10/10 05:58:23;;;;;;;2.50;2.00;;;;;;;7.30;88.77;100760.56;5008954;28;20242;-82
2022/10/10 06:00:49;;;;;;;2.67;1.67;;;;;;;7.33;88.93;100772.81;5013814;28;20218;-81
2022/10/10 06:03:17;;;;;;;7.23;2.10;;;;;;;7.32;88.20;100766.66;5012948;28;20207;-80
2022/10/10 06:05:45;;;;;;;3.63;2.30;;;;;;;7.33;87.82;100767.53;5020484;28;20203;-82
2022/10/10 06:08:12;;;;;;;3.50;1.90;;;;;;;7.32;88.19;100764.00;5016263;28;20238;-81
2022/10/10 06:10:42;;;;;;;3.33;1.80;;;;;;;7.33;87.27;100764.88;5023348;28;20218;-80
2022/10/10 06:13:09;;;;;;;5.13;2.23;;;;;;;7.32;87.45;100753.41;5014673;28;20199;-80
2022/10/10 06:15:35;;;;;;;3.80;2.07;;;;;;;7.37;87.47;100762.91;5012148;28;20715;-80
2022/10/10 06:18:02;;;;;;;2.53;1.40;;;;;;;7.40;87.77;100760.09;5007475;28;20226;-81
2022/10/10 06:20:28;;;;;;;1.60;1.40;;;;;;;7.45;87.33;100750.16;5004695;28;20207;-80
2022/10/10 06:22:55;;;;;;;3.23;1.87;;;;;;;7.50;87.27;100748.16;5013927;28;20203;-80
2022/10/10 06:25:21;;;;;;;3.93;1.80;;;;;;;7.57;87.18;100760.16;5014556;28;20215;-80
2022/10/10 06:27:49;;;;;;;3.13;1.60;;;;;;;7.64;87.45;100754.47;5016781;28;20239;-82
2022/10/10 06:30:16;;;;;;;3.47;1.57;;;;;;;7.72;87.20;100762.03;5030200;28;20202;-82
2022/10/10 06:32:42;;;;;;;4.23;1.60;;;;;;;7.83;86.69;100770.34;5015567;28;20203;-82
2022/10/10 06:35:09;;;;;;;2.50;1.60;;;;;;;7.94;86.85;100759.16;5014145;28;20595;-82
2022/10/10 06:37:36;;;;;;;2.50;1.67;;;;;;;8.04;86.16;100765.75;5013001;28;20783;-80
2022/10/10 06:40:03;;;;;;;2.63;1.50;;;;;;;8.10;86.52;100768.06;5021518;28;20669;-81
2022/10/10 06:42:29;;;;;;;2.80;1.37;;;;;;;8.20;85.06;100774.63;5020776;28;20210;-82
2022/10/10 06:44:57;;;;;;;4.07;1.40;;;;;;;8.28;84.99;100777.72;5016020;28;20572;-80
2022/10/10 06:47:24;;;;;;;2.80;1.67;;;;;;;8.34;84.36;100780.09;5014780;28;20867;-82
2022/10/10 06:49:50;;;;;;;2.83;1.50;;;;;;;8.39;84.70;100771.06;5023570;28;20199;-80
2022/10/10 06:52:17;;;;;;;3.93;1.90;;;;;;;8.43;83.93;100775.25;5013495;28;20204;-82
2022/10/10 06:54:43;;;;;;;2.53;1.80;;;;;;;8.48;83.97;100778.53;5023498;28;20217;-81
2022/10/10 06:57:10;;;;;;;3.60;1.60;;;;;;;8.52;82.95;100780.94;5017489;28;20224;-81
2022/10/10 06:59:36;;;;;;;2.90;1.90;;;;;;;8.58;83.20;100779.75;5025697;28;20214;-84
2022/10/10 07:02:04;;;;;;;5.23;2.30;;;;;;;8.62;82.81;100784.81;5022646;28;20393;-83
2022/10/10 07:04:30;;;;;;;2.93;1.70;;;;;;;8.65;82.84;100775.81;5013028;28;20298;-83
2022/10/10 07:06:57;;;;;;;3.40;1.90;;;;;;;8.68;82.53;100776.53;5019059;28;20234;-84
2022/10/10 07:09:23;;;;;;;4.00;1.87;;;;;;;8.72;82.57;100781.69;5012831;28;20223;-83
2022/10/10 07:11:50;;;;;;;2.93;1.87;;;;;;;8.74;82.28;100772.69;5024923;28;20460;-82
2022/10/10 07:14:16;;;;;;;4.10;2.20;;;;;;;8.80;83.04;100782.09;5015100;28;20646;-84
2022/10/10 07:16:43;;;;;;;2.83;1.57;;;;;;;8.89;82.71;100785.13;5016754;28;20217;-83
2022/10/10 07:19:10;;;;;;;3.60;1.60;;;;;;;8.97;83.30;100774.94;5018796;28;20207;-83
2022/10/10 07:21:37;;;;;;;2.77;1.63;;;;;;;9.08;82.70;100784.13;5013839;28;20207;-83
2022/10/10 07:24:03;;;;;;;4.80;1.67;;;;;;;9.19;82.91;100771.97;5011307;28;20210;-83
2022/10/10 07:26:35;;;;;;;4.87;1.57;;;;;;;9.30;82.35;100776.69;5016002;28;20222;-82
2022/10/10 07:29:02;;;;;;;3.03;1.97;;;;;;;9.39;81.74;100777.03;5008193;28;20250;-82
2022/10/10 07:31:28;;;;;;;3.33;1.93;;;;;;;9.48;81.73;100778.31;5026674;28;20210;-81
2022/10/10 07:33:55;;;;;;;3.73;1.80;;;;;;;9.60;81.54;100782.06;5021321;28;20213;-83
2022/10/10 07:36:23;;;;;;;2.13;1.60;;;;;;;9.73;81.02;100789.25;5024276;28;20221;-82
2022/10/10 07:38:50;;;;;;;3.30;1.53;;;;;;;9.85;80.24;100774.41;5018561;28;20227;-83
2022/10/10 07:41:18;;;;;;;5.23;1.87;;;;;;;9.99;79.96;100784.22;5015345;28;20203;-81
2022/10/10 07:43:45;;;;;;;3.10;1.60;;;;;;;10.10;79.48;100777.31;5020358;28;20198;-81
2022/10/10 07:46:15;;;;;;;4.30;1.47;;;;;;;10.25;78.95;100782.69;5019272;28;20649;-81
2022/10/10 07:48:42;;;;;;;4.10;1.57;;;;;;;10.37;78.50;100780.19;5019225;28;20254;-80
2022/10/10 07:51:09;;;;;;;4.67;1.70;;;;;;;10.51;77.84;100782.00;5010747;28;20202;-80
2022/10/10 07:53:37;;;;;;;4.00;1.53;;;;;;;10.64;77.20;100780.28;5010447;28;20214;-81
2022/10/10 07:56:04;;;;;;;2.83;1.53;;;;;;;10.79;76.93;100773.16;5024703;28;20206;-80
2022/10/10 07:58:31;;;;;;;3.47;1.93;;;;;;;10.94;76.20;100763.34;5015807;28;20223;-81
2022/10/10 08:01:02;;;;;;;3.97;2.03;;;;;;;11.07;75.40;100756.31;5020369;28;20613;-82
2022/10/10 08:03:28;;;;;;;5.97;1.90;;;;;;;11.20;75.38;100759.88;5024165;28;20658;-82
2022/10/10 08:05:55;;;;;;;5.30;1.37;;;;;;;11.32;74.38;100750.22;5031174;28;20214;-82
2022/10/10 08:08:21;;;;;;;2.07;1.60;;;;;;;11.45;73.48;100749.34;5018511;28;20236;-81
2022/10/10 08:10:49;;;;;;;3.47;1.67;;;;;;;11.56;73.37;100751.31;5028561;28;20933;-83
2022/10/10 08:13:15;;;;;;;3.23;1.60;;;;;;;11.66;72.69;100749.72;5021061;28;20228;-81
2022/10/10 08:15:42;;;;;;;4.87;1.70;;;;;;;11.81;72.23;100751.44;5020246;28;20606;-81
2022/10/10 08:18:08;;;;;;;5.30;1.80;;;;;;;11.92;71.55;100753.38;5024985;28;20232;-81
2022/10/10 08:20:35;;;;;;;5.20;1.70;;;;;;;12.02;71.20;100751.78;5018429;28;20210;-81
2022/10/10 08:23:01;;;;;;;3.83;2.20;;;;;;;12.13;70.13;100754.59;5014268;28;20214;-80
2022/10/10 08:25:28;;;;;;;3.37;2.00;;;;;;;12.24;69.77;100753.84;5020006;28;20200;-81
2022/10/10 08:27:55;;;;;;;7.17;2.10;;;;;;;12.34;69.25;100748.75;5020905;28;20234;-82
2022/10/10 08:30:22;;;;;;;3.57;1.93;;;;;;;12.42;69.52;100757.94;5028083;28;20230;-81
2022/10/10 08:32:48;;;;;;;2.30;1.60;;;;;;;12.55;69.45;100757.06;5021373;28;20207;-82
2022/10/10 08:35:15;;;;;;;4.20;1.83;;;;;;;12.67;69.11;100748.22;5021058;28;20205;-81
2022/10/10 08:37:41;;;;;;;4.27;1.60;;;;;;;12.77;68.91;100752.78;5026942;28;20693;-82
2022/10/10 08:40:12;;;;;;;4.07;1.50;;;;;;;12.87;68.31;100753.00;5029503;28;20563;-81
2022/10/10 08:42:44;;;;;;;3.63;1.70;;;;;;;12.97;67.80;100748.69;5020032;28;20202;-81
2022/10/10 08:45:16;;;;;;;4.70;1.70;;;;;;;13.09;67.94;100742.44;5026189;28;20202;-82
2022/10/10 08:47:48;;;;;;;2.87;1.90;;;;;;;13.18;67.70;100747.19;5015029;28;20235;-81
2022/10/10 08:50:19;;;;;;;2.80;1.87;;;;;;;13.31;67.28;100747.13;5022605;28;20199;-81
2022/10/10 08:52:50;;;;;;;3.27;1.70;;;;;;;13.41;67.06;100737.50;5017689;28;20266;-81
2022/10/10 08:55:21;;;;;;;8.10;2.03;;;;;;;13.52;66.66;100740.22;5022241;28;20207;-81
2022/10/10 08:57:51;;;;;;;2.83;1.50;;;;;;;13.64;66.25;100733.09;5023888;28;20222;-81
2022/10/10 09:00:24;;;;;;;5.20;1.90;;;;;;;13.74;65.71;100725.22;5022422;28;20211;-81
2022/10/10 09:02:55;;;;;;;3.13;1.60;;;;;;;13.84;65.22;100729.75;5025700;28;20205;-81
2022/10/10 09:05:31;;;;;;;4.80;1.60;;;;;;;13.95;64.56;100728.13;5019430;28;20276;-81
2022/10/10 09:08:19;;;;;;;2.73;2.17;;;;;;;14.04;64.54;100730.06;5017950;28;20230;-81
2022/10/10 09:10:54;;;;;;;4.90;2.17;;;;;;;14.12;64.14;100728.53;5018247;28;20683;-80
2022/10/10 09:13:31;;;;;;;2.17;1.60;;;;;;;14.21;63.84;100729.63;5018548;28;20680;-81
2022/10/10 09:16:02;;;;;;;2.43;1.53;;;;;;;14.30;63.46;100720.03;5015361;28;20200;-80
2022/10/10 09:18:42;;;;;;;2.77;1.60;;;;;;;14.39;63.45;100719.31;5021625;28;20708;-81
2022/10/10 09:21:15;;;;;;;4.00;1.77;;;;;;;14.49;63.71;100723.03;5012911;28;20213;-81
2022/10/10 09:23:46;;;;;;;1.93;1.67;;;;;;;14.57;63.23;100713.41;5029197;28;20270;-81
2022/10/10 09:26:15;;;;;;;1.93;1.70;;;;;;;14.70;62.68;100728.50;5019290;28;20213;-82
2022/10/10 09:28:46;;;;;;;4.10;1.70;;;;;;;14.79;62.72;100723.28;5025416;28;20264;-81
2022/10/10 09:31:18;;;;;;;3.47;1.93;;;;;;;14.92;62.46;100720.47;5023470;28;20356;-82
2022/10/10 09:33:51;;;;;;;4.57;1.83;;;;;;;15.04;62.17;100719.50;5022896;28;20212;-81
2022/10/10 09:36:23;;;;;;;3.17;1.67;;;;;;;15.13;61.51;100720.56;5015480;28;20677;-81
2022/10/10 09:38:53;;;;;;;2.60;1.83;;;;;;;15.19;61.43;100709.34;5018907;28;20251;-81
2022/10/10 09:41:25;;;;;;;2.77;1.73;;;;;;;15.27;61.33;100705.03;5025588;28;20265;-81
2022/10/10 09:43:55;;;;;;;2.73;1.60;;;;;;;15.39;61.57;100707.72;5024407;28;20583;-81
2022/10/10 09:46:23;;;;;;;4.27;1.80;;;;;;;15.48;60.94;100702.41;5016617;28;20259;-81
2022/10/10 09:48:50;;;;;;;3.23;1.80;;;;;;;15.55;60.66;100694.72;5014290;28;20659;-81
2022/10/10 09:51:18;;;;;;;3.60;1.80;;;;;;;15.61;60.53;100703.13;5022936;28;20204;-81
2022/10/10 09:53:47;;;;;;;3.87;1.90;;;;;;;15.71;60.63;100700.53;5021319;28;20640;-80
2022/10/10 09:56:17;;;;;;;4.33;1.80;;;;;;;15.80;60.42;100696.22;5025600;28;20637;-81
2022/10/10 09:58:46;;;;;;;3.07;2.00;;;;;;;15.88;60.09;100702.66;5014744;28;20217;-80
2022/10/10 10:01:15;;;;;;;3.90;1.73;;;;;;;15.94;59.35;100693.22;5022681;28;20203;-80
2022/10/10 10:03:44;;;;;;;2.10;1.60;;;;;;;16.00;59.01;100706.13;5015638;28;20664;-80
2022/10/10 10:06:13;;;;;;;6.70;1.93;;;;;;;16.08;58.75;100705.47;5025054;28;20208;-80
2022/10/10 10:08:41;;;;;;;5.67;2.00;;;;;;;16.09;58.54;100709.88;5019444;28;20590;-80
2022/10/10 10:11:25;;;;;;;2.50;1.70;;;;;;;16.13;58.75;100698.72;5011971;28;20229;-80
2022/10/10 10:13:55;;;;;;;3.97;2.53;;;;;;;16.23;58.49;100706.84;5013066;28;20204;-81
2022/10/10 10:16:31;;;;;;;4.53;1.80;;;;;;;16.29;58.11;100709.03;5016824;28;20213;-80
2022/10/10 10:18:59;;;;;;;3.57;1.70;;;;;;;16.34;58.43;100714.81;5007581;28;20230;-80
2022/10/10 10:21:26;;;;;;;4.17;1.60;;;;;;;16.41;58.29;100707.09;5013238;28;20212;-80
2022/10/10 10:23:56;;;;;;;3.03;1.57;;;;;;;16.47;57.96;100714.66;5024061;28;20588;-80
2022/10/10 10:26:26;;;;;;;5.23;2.00;;;;;;;16.56;57.76;100708.44;5015816;28;20209;-80
2022/10/10 10:28:53;;;;;;;2.90;1.80;;;;;;;16.58;57.77;100704.66;5018266;28;20236;-81
2022/10/10 10:31:51;;;;;;;4.00;1.60;;;;;;;16.63;57.24;100699.75;5024373;28;20199;-80
2022/10/10 10:34:43;;;;;;;3.37;1.90;;;;;;;16.72;57.49;100705.28;5016644;28;20575;-80
2022/10/10 10:37:19;;;;;;;2.97;1.93;;;;;;;16.77;56.20;100705.75;5020469;28;20229;-80
2022/10/10 10:40:15;;;;;;;6.03;1.70;;;;;;;16.77;56.46;100698.53;5016149;28;20209;-80
2022/10/10 10:42:59;;;;;;;2.97;1.60;;;;;;;16.81;56.18;100705.34;5006768;28;20576;-80
2022/10/10 10:45:32;;;;;;;3.17;1.60;;;;;;;16.84;56.21;100701.53;5010312;28;20257;-80
2022/10/10 10:48:09;;;;;;;3.30;1.53;;;;;;;16.89;56.00;100699.28;5019871;28;20256;-80
2022/10/10 10:50:46;;;;;;;4.07;1.53;;;;;;;16.92;55.82;100696.31;5011575;28;20211;-81
2022/10/10 10:53:21;;;;;;;5.07;1.77;;;;;;;16.95;55.63;100699.59;5013899;28;20647;-81
2022/10/10 10:55:54;;;;;;;3.87;2.20;;;;;;;16.99;55.40;100694.78;5011824;28;20673;-82
2022/10/10 10:58:35;;;;;;;3.97;1.90;;;;;;;17.03;55.38;100701.56;5016528;28;20249;-80
2022/10/10 11:01:05;;;;;;;2.07;1.57;;;;;;;17.07;54.93;100702.16;5018969;28;20214;-81
2022/10/10 11:03:46;;;;;;;3.77;1.50;;;;;;;17.09;54.92;100695.66;5012800;28;20236;-80
2022/10/10 11:06:26;;;;;;;3.93;1.70;;;;;;;17.13;54.95;100702.47;5021655;28;20662;-81
2022/10/10 11:09:01;;;;;;;4.50;2.40;;;;;;;17.17;54.88;100686.91;5013619;28;20232;-81
2022/10/10 11:11:55;;;;;;;5.20;1.63;;;;;;;17.16;55.01;100688.75;5018505;28;20618;-81
2022/10/10 11:14:42;;;;;;;3.43;1.63;;;;;;;17.21;55.11;100685.63;5018708;28;20224;-80
2022/10/10 11:17:14;;;;;;;3.20;1.80;;;;;;;17.29;55.08;100675.88;5005981;28;20230;-80
2022/10/10 11:19:45;;;;;;;3.77;2.07;;;;;;;17.34;55.27;100681.69;5010635;28;20202;-80
2022/10/10 11:22:17;;;;;;;3.33;1.47;;;;;;;17.38;55.19;100678.72;5018311;28;20584;-80
2022/10/10 11:24:50;;;;;;;5.37;2.00;;;;;;;17.43;55.08;100681.81;5012601;28;20210;-81
2022/10/10 11:27:22;;;;;;;4.67;1.70;;;;;;;17.45;54.99;100682.53;5013462;28;20255;-81
2022/10/10 11:29:57;;;;;;;3.20;1.60;;;;;;;17.46;55.04;100670.78;5019305;28;20222;-81
2022/10/10 11:32:30;;;;;;;3.97;2.03;;;;;;;17.48;55.03;100675.03;5014707;28;20218;-80
2022/10/10 11:35:08;;;;;;;5.50;1.67;;;;;;;17.53;54.93;100674.63;5016125;28;20224;-81
2022/10/10 11:37:42;;;;;;;5.27;2.23;;;;;;;17.55;54.61;100667.25;5021533;28;20477;-81
2022/10/10 11:40:19;;;;;;;3.00;1.80;;;;;;;17.49;54.77;100674.06;5021748;28;20199;-81
2022/10/10 11:42:52;;;;;;;2.80;1.80;;;;;;;17.49;54.96;100667.81;5015126;28;20201;-81